Huntsville Municipal Airport
KUTS : now visible

Airfield :











YOU CAN JOIN US ON...

 
LOGIN :

Register | Disclaimer

   EN    FR    IT 

 









Legend :    VFR   Marginal VFR   IFR   Intensive IFR   Very Intensive IFR
Visi :
Ceiling :
>= 8 km
>= 3000ft
5 to 8 km
1000 to 3000 ft
1500m to 5 km
500 to 1000 ft
800 to 1500m
200 to 500 ft
< 800m
< 200 ft
Symbols :   Thunderstorms  Fog  Heavy snow  Heavy precipitations  Wind > 20 kt






- Airport Elevation : 363 ft


KUTS - Huntsville Municipal

CURRENT METAR :
  • 160904Z AUTO 00000KT 5SM BR BKN013 BKN018 OVC023 22/19 A2981 RMK AO2 T02170194

EXPIRED METARs :
  • 160853Z AUTO 00000KT 5SM BR SCT016 BKN025 22/19 A2981 RMK AO2 SLP089 T02170194 53001
  • 160845Z AUTO 00000KT 5SM BR SCT018 BKN025 21/19 A2981 RMK AO2 T02110189
  • 160821Z AUTO VRB04KT 6SM BR FEW016 FEW024 22/19 A2980 RMK AO2 T02170194
  • 160753Z AUTO 16004KT 6SM HZ FEW016 BKN028 22/19 A2980 RMK AO2 SLP087 T02170189
  • 160714Z AUTO 18005KT 6SM BR FEW018 BKN028 21/19 A2980 RMK AO2 T02110189
  • 160653Z AUTO 18004KT 7SM SCT027 22/19 A2981 RMK AO2 SLP089 T02170189

TAF KUTS
Valid from the 16 at 09:00 until the 17 at 06:00 UTC


160915Z 1609/1706 00000KT 5SM BR VCSH BKN013 BKN018 OVC023
FM161200 29009KT 6SM -SHRA BR SCT015 OVC035
FM161500 31013G23KT P6SM VCSH BKN008 BKN015 OVC045
FM161900 32012G22KT P6SM BKN015
FM162100 33012G22KT P6SM BKN025
FM162300 33013KT P6SM SKC



MET'MAP, your aeronautical weather chart ! - Copyright ORBIFLY December 2007 - Disclaimer

ORBIFLY MET'MAP TEAM :

Programming & Development : Alexandra Zaïnal
Concept & original design : Baudouin d'Aumeries
Assistance for programming : Marc-Olivier Méhu
Technical & hardware support : Manuel Goepfert

Contact : metmap@orbifly.com




SOURCES & CREDITS :

   NOAA       Earth
Advisory